createdAt,value
2023-08-05T00:02:14.624Z,28.28
2023-08-05T00:05:00.631Z,28.23
2023-08-05T00:07:46.723Z,28.13
2023-08-05T00:10:32.720Z,28.17
2023-08-05T00:13:19.001Z,28.05
2023-08-05T00:16:07.886Z,28.18
2023-08-05T00:18:53.849Z,28.11
2023-08-05T00:21:39.889Z,27.94
2023-08-05T00:24:25.968Z,27.98
2023-08-05T00:27:12.020Z,27.88
2023-08-05T00:29:58.234Z,27.92
2023-08-05T00:32:45.065Z,27.88
2023-08-05T00:35:31.214Z,27.89
2023-08-05T00:38:17.314Z,27.83
2023-08-05T00:41:04.616Z,27.71
2023-08-05T00:43:50.527Z,27.79
2023-08-05T00:46:36.730Z,27.78
2023-08-05T00:49:22.830Z,27.76
2023-08-05T00:52:09.910Z,27.75
2023-08-05T00:54:56.330Z,27.64
2023-08-05T00:57:42.767Z,27.71
2023-08-05T01:00:28.980Z,27.60
2023-08-05T01:03:15.694Z,27.66
2023-08-05T01:06:02.555Z,27.69
2023-08-05T01:08:48.962Z,27.60
2023-08-05T01:11:36.943Z,27.50
2023-08-05T01:14:23.108Z,27.57
2023-08-05T01:17:08.937Z,27.48
2023-08-05T01:19:55.239Z,27.48
2023-08-05T01:22:43.809Z,27.50
2023-08-05T01:25:33.397Z,27.40
2023-08-05T01:28:19.850Z,27.44
2023-08-05T01:31:07.706Z,27.43
2023-08-05T01:33:53.844Z,27.38
2023-08-05T01:36:39.969Z,27.39
2023-08-05T01:39:26.345Z,27.37
2023-08-05T01:42:12.423Z,27.29
2023-08-05T01:44:58.586Z,27.26
2023-08-05T01:47:44.694Z,27.31
2023-08-05T01:50:30.568Z,27.26
2023-08-05T01:53:16.696Z,27.22
2023-08-05T01:56:02.672Z,27.19
2023-08-05T01:58:48.774Z,26.95
2023-08-05T02:01:46.873Z,26.85
2023-08-05T02:04:32.704Z,26.95
2023-08-05T02:07:18.686Z,26.83
2023-08-05T02:10:05.017Z,26.88
2023-08-05T02:12:51.327Z,26.90
2023-08-05T02:15:37.419Z,26.88
2023-08-05T02:18:23.615Z,26.81
2023-08-05T02:21:09.653Z,26.82
2023-08-05T02:23:56.818Z,26.76
2023-08-05T02:26:43.065Z,26.79
2023-08-05T02:29:30.427Z,26.73
2023-08-05T02:32:16.543Z,26.79
2023-08-05T02:35:02.454Z,26.79
2023-08-05T02:37:48.445Z,26.73
2023-08-05T02:40:34.832Z,26.70
2023-08-05T02:43:20.800Z,26.59
2023-08-05T02:46:06.841Z,26.59
2023-08-05T02:48:52.692Z,26.60
2023-08-05T02:51:38.898Z,26.58
2023-08-05T02:54:25.133Z,26.57
2023-08-05T02:57:11.119Z,26.37
2023-08-05T02:59:56.999Z,26.44
2023-08-05T03:02:42.919Z,26.42
2023-08-05T03:05:29.207Z,26.33
2023-08-05T03:08:15.373Z,26.37
2023-08-05T03:11:02.517Z,26.38
2023-08-05T03:13:51.197Z,26.39
2023-08-05T03:16:38.579Z,26.33
2023-08-05T03:19:32.872Z,26.21
2023-08-05T03:22:18.843Z,26.23
2023-08-05T03:25:06.212Z,26.23
2023-08-05T03:27:52.683Z,26.24
2023-08-05T03:30:39.808Z,26.17
2023-08-05T03:33:29.928Z,26.10
2023-08-05T03:36:17.317Z,26.12
2023-08-05T03:39:03.955Z,26.13
2023-08-05T03:41:50.368Z,26.12
2023-08-05T03:44:36.272Z,26.10
2023-08-05T03:47:22.482Z,26.04
2023-08-05T03:50:09.785Z,26.02
2023-08-05T03:52:56.416Z,26.08
2023-08-05T03:55:42.586Z,26.00
2023-08-05T03:58:29.750Z,25.98
2023-08-05T04:01:18.416Z,26.07
2023-08-05T04:04:04.793Z,26.07
2023-08-05T04:06:51.189Z,26.14
2023-08-05T04:09:38.340Z,26.11
2023-08-05T04:12:24.233Z,26.10
2023-08-05T04:15:12.905Z,26.10
2023-08-05T04:18:01.362Z,26.15
2023-08-05T04:20:49.444Z,26.11
2023-08-05T04:23:36.224Z,26.17
2023-08-05T04:26:22.380Z,26.17
2023-08-05T04:29:11.235Z,26.10
2023-08-05T04:31:57.776Z,26.15
2023-08-05T04:34:45.214Z,26.07
2023-08-05T04:37:32.619Z,26.12
2023-08-05T04:40:18.584Z,26.15
2023-08-05T04:43:04.545Z,26.19
2023-08-05T04:45:55.518Z,26.15
2023-08-05T04:48:41.652Z,26.12
2023-08-05T04:51:27.642Z,26.12
2023-08-05T04:54:13.704Z,26.25
2023-08-05T04:56:59.502Z,26.26
2023-08-05T04:59:45.630Z,26.25
2023-08-05T05:02:31.651Z,26.22
2023-08-05T05:05:17.665Z,26.31
2023-08-05T05:08:04.009Z,26.37
2023-08-05T05:10:50.088Z,26.30
2023-08-05T05:13:36.644Z,26.36
2023-08-05T05:16:22.946Z,26.39
2023-08-05T05:19:09.109Z,26.35
2023-08-05T05:21:56.435Z,26.42
2023-08-05T05:24:42.752Z,26.36
2023-08-05T05:27:28.630Z,26.45
2023-08-05T05:30:14.772Z,26.47
2023-08-05T05:33:00.789Z,26.53
2023-08-05T05:35:46.650Z,26.54
2023-08-05T05:38:32.669Z,26.62
2023-08-05T05:41:18.476Z,26.61
2023-08-05T05:44:05.517Z,26.67
2023-08-05T05:46:51.805Z,26.68
2023-08-05T05:49:38.144Z,26.69
2023-08-05T05:52:24.075Z,26.78
2023-08-05T05:55:10.300Z,26.70
2023-08-05T05:57:56.334Z,26.83
2023-08-05T06:00:42.925Z,26.83
2023-08-05T06:03:29.090Z,26.90
2023-08-05T06:06:15.016Z,26.87
2023-08-05T06:09:02.249Z,26.91
2023-08-05T06:11:49.091Z,27.02
2023-08-05T06:14:35.942Z,27.00
2023-08-05T06:17:22.312Z,27.10
2023-08-05T06:20:09.749Z,27.08
2023-08-05T06:22:55.710Z,27.08
2023-08-05T06:25:42.772Z,27.21
2023-08-05T06:28:28.915Z,27.25
2023-08-05T06:31:14.945Z,27.27
2023-08-05T06:34:00.897Z,27.35
2023-08-05T06:36:47.122Z,27.31
2023-08-05T06:39:36.288Z,27.42
2023-08-05T06:42:25.190Z,27.40
2023-08-05T06:45:11.404Z,27.54
2023-08-05T06:47:57.653Z,27.63
2023-08-05T06:50:43.581Z,27.61
2023-08-05T06:53:30.425Z,27.69
2023-08-05T06:56:16.509Z,27.89
2023-08-05T06:59:02.726Z,27.89
2023-08-05T07:01:48.981Z,27.88
2023-08-05T07:04:35.295Z,28.00
2023-08-05T07:07:21.587Z,28.18
2023-08-05T07:10:09.512Z,28.21
2023-08-05T07:12:55.981Z,28.33
2023-08-05T07:15:41.914Z,28.33
2023-08-05T07:18:27.786Z,28.25
2023-08-05T07:21:16.169Z,28.43
2023-08-05T07:24:02.494Z,28.34
2023-08-05T07:26:48.621Z,28.55
2023-08-05T07:29:34.808Z,28.55
2023-08-05T07:32:20.716Z,28.68
2023-08-05T07:35:08.952Z,28.72
2023-08-05T07:37:56.726Z,28.84
2023-08-05T07:40:44.573Z,28.93
2023-08-05T07:43:33.309Z,28.93
2023-08-05T07:46:20.876Z,28.88
2023-08-05T07:49:08.353Z,28.89
2023-08-05T07:51:55.145Z,29.04
2023-08-05T07:54:41.193Z,29.10
2023-08-05T07:57:27.179Z,28.99
2023-08-05T08:00:14.750Z,29.11
2023-08-05T08:03:00.802Z,29.04
2023-08-05T08:05:46.725Z,29.28
2023-08-05T08:08:32.981Z,29.22
2023-08-05T08:11:19.335Z,29.18
2023-08-05T08:14:05.834Z,29.22
2023-08-05T08:16:51.797Z,29.27
2023-08-05T08:19:38.064Z,29.22
2023-08-05T08:22:24.166Z,29.36
2023-08-05T08:25:10.515Z,29.58
2023-08-05T08:27:56.757Z,29.54
2023-08-05T08:30:56.483Z,29.39
2023-08-05T08:33:42.805Z,29.61
2023-08-05T08:36:28.868Z,29.50
2023-08-05T08:39:14.800Z,29.62
2023-08-05T08:42:00.788Z,29.37
2023-08-05T08:44:46.963Z,29.79
2023-08-05T08:47:33.904Z,29.92
2023-08-05T08:50:20.572Z,29.90
2023-08-05T08:53:09.892Z,30.05
2023-08-05T08:55:56.508Z,30.02
2023-08-05T08:58:42.836Z,29.91
2023-08-05T09:01:29.422Z,30.24
2023-08-05T09:04:16.612Z,30.24
2023-08-05T09:07:03.319Z,30.29
2023-08-05T09:09:49.763Z,30.23
2023-08-05T09:12:36.167Z,30.27
2023-08-05T09:15:22.469Z,30.39
2023-08-05T09:18:09.864Z,30.32
2023-08-05T09:21:00.654Z,30.27
2023-08-05T09:23:47.734Z,30.39
2023-08-05T09:26:36.941Z,30.47
2023-08-05T09:29:24.084Z,30.47
2023-08-05T09:32:15.040Z,30.50
2023-08-05T09:35:01.668Z,30.63
2023-08-05T09:37:52.904Z,30.72
2023-08-05T09:40:42.658Z,30.57
2023-08-05T09:43:35.447Z,30.87
2023-08-05T09:46:23.186Z,30.78
2023-08-05T09:49:10.071Z,30.79
2023-08-05T09:51:56.901Z,30.91
2023-08-05T09:54:45.910Z,30.92
2023-08-05T09:57:33.058Z,30.98
2023-08-05T10:00:18.916Z,31.06
2023-08-05T10:03:08.855Z,31.03
2023-08-05T10:05:57.050Z,31.06
2023-08-05T10:08:43.678Z,31.11
2023-08-05T10:11:29.997Z,31.10
2023-08-05T10:14:16.212Z,31.12
2023-08-05T10:17:03.201Z,31.19
2023-08-05T10:19:51.832Z,31.10
2023-08-05T10:22:39.224Z,31.06
2023-08-05T10:26:01.143Z,30.95
2023-08-05T10:28:47.334Z,31.28
2023-08-05T10:31:37.465Z,31.20
2023-08-05T10:34:23.594Z,31.29
2023-08-05T10:37:09.666Z,31.21
2023-08-05T10:40:01.986Z,31.31
2023-08-05T10:42:48.417Z,31.35
2023-08-05T10:45:36.027Z,31.34
2023-08-05T10:48:28.594Z,31.36
2023-08-05T10:51:17.555Z,31.29
2023-08-05T10:54:04.611Z,31.25
2023-08-05T10:56:50.459Z,31.41
2023-08-05T11:00:01.971Z,31.42
2023-08-05T11:02:50.763Z,31.44
2023-08-05T11:05:39.315Z,31.03
2023-08-05T11:08:27.262Z,31.36
2023-08-05T11:11:14.767Z,31.50
2023-08-05T11:14:01.915Z,31.39
2023-08-05T11:16:48.349Z,31.10
2023-08-05T11:19:54.006Z,30.59
2023-08-05T11:22:40.449Z,30.96
2023-08-05T11:25:26.565Z,31.13
2023-08-05T11:28:12.669Z,31.24
2023-08-05T11:30:59.390Z,31.06
2023-08-05T11:33:49.334Z,31.15
2023-08-05T11:36:35.239Z,31.02
2023-08-05T11:39:27.589Z,31.04
2023-08-05T11:42:13.846Z,30.81
2023-08-05T11:45:00.378Z,30.72
2023-08-05T11:47:46.714Z,30.68
2023-08-05T11:50:37.165Z,30.32
2023-08-05T11:53:23.317Z,30.08
2023-08-05T11:56:10.538Z,29.80
2023-08-05T11:58:58.077Z,30.11
2023-08-05T12:01:44.152Z,29.71
2023-08-05T12:04:30.231Z,30.02
2023-08-05T12:07:21.124Z,29.85
2023-08-05T12:10:13.361Z,29.72
2023-08-05T12:13:03.119Z,29.77
2023-08-05T12:15:49.487Z,29.71
2023-08-05T12:18:43.225Z,29.57
2023-08-05T12:21:29.361Z,29.49
2023-08-05T12:24:15.285Z,29.65
2023-08-05T12:27:01.540Z,29.79
2023-08-05T12:29:47.965Z,28.94
2023-08-05T12:32:37.480Z,29.31
2023-08-05T12:35:23.674Z,29.27
2023-08-05T12:38:09.884Z,29.41
2023-08-05T12:40:55.978Z,29.44
2023-08-05T12:43:41.910Z,29.44
2023-08-05T12:46:27.823Z,29.43
2023-08-05T12:49:14.835Z,29.44
2023-08-05T12:52:02.965Z,28.93
2023-08-05T12:54:50.249Z,29.26
2023-08-05T12:57:36.462Z,29.28
2023-08-05T13:00:22.743Z,28.02
2023-08-05T13:03:08.777Z,28.68
2023-08-05T13:05:55.224Z,28.52
2023-08-05T13:08:41.183Z,28.52
2023-08-05T13:11:26.990Z,28.29
2023-08-05T13:14:13.631Z,27.54
2023-08-05T13:16:59.639Z,26.04
2023-08-05T13:19:45.575Z,26.88
2023-08-05T13:22:31.749Z,27.36
2023-08-05T13:25:18.314Z,27.69
2023-08-05T13:28:04.385Z,27.81
2023-08-05T13:30:50.691Z,27.98
2023-08-05T13:33:38.654Z,28.03
2023-08-05T13:36:25.402Z,27.90
2023-08-05T13:39:11.550Z,28.01
2023-08-05T13:42:01.536Z,27.38
2023-08-05T13:44:47.689Z,26.37
2023-08-05T13:47:33.574Z,27.00
2023-08-05T13:50:21.116Z,27.49
2023-08-05T13:53:07.509Z,27.68
2023-08-05T13:56:00.896Z,27.52
2023-08-05T13:58:46.789Z,27.62
2023-08-05T14:01:32.706Z,27.76
2023-08-05T14:04:18.815Z,27.73
2023-08-05T14:07:05.551Z,27.82
2023-08-05T14:09:52.195Z,27.85
2023-08-05T14:12:38.602Z,27.76
2023-08-05T14:15:24.923Z,27.91
2023-08-05T14:18:11.123Z,27.93
2023-08-05T14:20:57.282Z,27.98
2023-08-05T14:23:43.249Z,28.01
2023-08-05T14:26:30.245Z,28.00
2023-08-05T14:29:18.212Z,27.87
2023-08-05T14:32:05.016Z,27.81
2023-08-05T14:34:58.989Z,27.89
2023-08-05T14:37:53.562Z,27.91
2023-08-05T14:40:39.984Z,27.89
2023-08-05T14:43:26.052Z,27.84
2023-08-05T14:46:12.424Z,27.73
2023-08-05T14:48:58.561Z,27.79
2023-08-05T14:51:44.440Z,27.65
2023-08-05T14:54:30.486Z,27.72
2023-08-05T14:57:16.414Z,27.27
2023-08-05T15:00:02.534Z,27.47
2023-08-05T15:02:50.176Z,27.49
2023-08-05T15:05:36.446Z,27.52
2023-08-05T15:08:25.426Z,27.40
2023-08-05T15:11:14.793Z,27.08
2023-08-05T15:14:00.954Z,27.31
2023-08-05T15:16:47.058Z,27.26
2023-08-05T15:19:33.036Z,27.30
2023-08-05T15:22:19.607Z,27.21
2023-08-05T15:25:06.291Z,27.22
2023-08-05T15:27:52.396Z,27.22
2023-08-05T15:30:39.508Z,27.21
2023-08-05T15:33:26.507Z,27.08
2023-08-05T15:36:17.590Z,27.05
2023-08-05T15:39:04.703Z,27.04
2023-08-05T15:41:54.574Z,26.90
2023-08-05T15:44:41.091Z,26.96
2023-08-05T15:47:26.981Z,26.82
2023-08-05T15:50:19.286Z,26.72
2023-08-05T15:53:05.547Z,26.80
2023-08-05T15:56:01.784Z,26.64
2023-08-05T15:58:48.239Z,26.73
2023-08-05T16:01:36.856Z,26.70
2023-08-05T16:04:24.313Z,26.67
2023-08-05T16:07:10.631Z,26.61
2023-08-05T16:09:57.055Z,26.49
2023-08-05T16:12:42.916Z,26.49
2023-08-05T16:15:29.058Z,26.40
2023-08-05T16:18:17.913Z,26.43
2023-08-05T16:21:18.559Z,26.27
2023-08-05T16:24:04.670Z,26.30
2023-08-05T16:26:55.378Z,26.34
2023-08-05T16:29:43.224Z,26.17
2023-08-05T16:32:35.775Z,26.17
2023-08-05T16:35:23.414Z,26.15
2023-08-05T16:38:10.051Z,26.15
2023-08-05T16:40:56.311Z,26.15
2023-08-05T16:43:42.353Z,26.12
2023-08-05T16:46:42.904Z,26.05
2023-08-05T16:49:34.572Z,26.04
2023-08-05T16:52:20.580Z,25.98
2023-08-05T16:55:06.909Z,25.95
2023-08-05T16:57:55.245Z,25.97
2023-08-05T17:00:41.280Z,25.94
2023-08-05T17:03:27.094Z,25.90
2023-08-05T17:06:13.757Z,25.85
2023-08-05T17:08:59.878Z,25.78
2023-08-05T17:11:45.899Z,25.82
2023-08-05T17:14:31.830Z,25.78
2023-08-05T17:17:17.811Z,25.73
2023-08-05T17:20:04.964Z,25.57
2023-08-05T17:22:50.987Z,25.49
2023-08-05T17:25:44.583Z,25.48
2023-08-05T17:28:30.565Z,25.51
2023-08-05T17:31:16.699Z,25.45
2023-08-05T17:34:02.704Z,25.38
2023-08-05T17:36:48.600Z,25.39
2023-08-05T17:39:34.824Z,25.33
2023-08-05T17:42:20.811Z,25.38
2023-08-05T17:45:07.314Z,25.25
2023-08-05T17:47:53.448Z,25.36
2023-08-05T17:50:39.356Z,25.29
2023-08-05T17:53:25.982Z,25.32
2023-08-05T17:56:12.244Z,25.23
2023-08-05T17:58:58.339Z,25.22
2023-08-05T18:01:45.497Z,25.25
2023-08-05T18:04:32.238Z,25.22
2023-08-05T18:07:18.353Z,25.18
2023-08-05T18:10:04.657Z,25.16
2023-08-05T18:12:50.957Z,25.04
2023-08-05T18:15:36.913Z,25.08
2023-08-05T18:18:23.110Z,25.05
2023-08-05T18:21:09.806Z,25.04
2023-08-05T18:23:58.743Z,24.93
2023-08-05T18:26:45.376Z,25.00
2023-08-05T18:29:31.581Z,24.94
2023-08-05T18:32:20.799Z,24.94
2023-08-05T18:35:08.742Z,24.86
2023-08-05T18:37:54.921Z,24.96
2023-08-05T18:40:41.231Z,24.97
2023-08-05T18:43:27.477Z,24.94
2023-08-05T18:46:13.804Z,24.93
2023-08-05T18:49:00.170Z,24.76
2023-08-05T18:51:46.507Z,24.88
2023-08-05T18:54:33.159Z,24.84
2023-08-05T18:57:19.380Z,24.86
2023-08-05T19:00:06.926Z,24.83
2023-08-05T19:02:53.033Z,24.78
2023-08-05T19:05:39.110Z,24.70
2023-08-05T19:08:25.176Z,24.74
2023-08-05T19:11:15.888Z,24.67
2023-08-05T19:14:03.238Z,24.64
2023-08-05T19:16:49.458Z,24.59
2023-08-05T19:19:38.161Z,24.55
2023-08-05T19:22:24.274Z,24.52
2023-08-05T19:25:10.205Z,24.52
2023-08-05T19:27:56.181Z,24.50
2023-08-05T19:30:44.724Z,24.43
2023-08-05T19:33:30.817Z,24.41
2023-08-05T19:36:18.289Z,24.34
2023-08-05T19:39:04.670Z,24.40
2023-08-05T19:41:51.089Z,24.28
2023-08-05T19:44:37.399Z,24.30
2023-08-05T19:47:23.712Z,24.37
2023-08-05T19:50:10.074Z,24.40
2023-08-05T19:52:56.175Z,24.13
2023-08-05T19:55:42.269Z,24.28
2023-08-05T19:58:28.344Z,24.18
2023-08-05T20:01:14.410Z,24.21
2023-08-05T20:04:00.421Z,24.20
2023-08-05T20:06:46.492Z,24.17
2023-08-05T20:09:32.956Z,24.11
2023-08-05T20:12:21.699Z,24.01
2023-08-05T20:15:08.238Z,24.11
2023-08-05T20:17:54.256Z,24.08
2023-08-05T20:20:40.322Z,23.93
2023-08-05T20:23:27.547Z,23.98
2023-08-05T20:26:15.057Z,23.93
2023-08-05T20:29:01.293Z,24.01
2023-08-05T20:31:47.592Z,23.88
2023-08-05T20:34:33.994Z,23.91
2023-08-05T20:37:20.862Z,23.81
2023-08-05T20:40:08.231Z,23.58
2023-08-05T20:42:54.386Z,23.40
2023-08-05T20:45:40.333Z,23.07
2023-08-05T20:48:26.527Z,22.87
2023-08-05T20:51:12.522Z,23.19
2023-08-05T20:53:58.446Z,23.09
2023-08-05T20:56:44.404Z,23.25
2023-08-05T20:59:30.409Z,23.31
2023-08-05T21:02:17.835Z,23.42
2023-08-05T21:05:05.662Z,23.47
2023-08-05T21:07:52.191Z,23.48
2023-08-05T21:10:38.011Z,23.49
2023-08-05T21:13:24.100Z,23.59
2023-08-05T21:16:10.902Z,23.62
2023-08-05T21:18:59.520Z,23.52
2023-08-05T21:21:45.796Z,23.65
2023-08-05T21:24:31.933Z,23.69
2023-08-05T21:27:17.812Z,23.68
2023-08-05T21:30:04.344Z,23.70
2023-08-05T21:32:50.582Z,23.70
2023-08-05T21:35:36.506Z,23.71
2023-08-05T21:38:22.688Z,23.64
2023-08-05T21:41:10.165Z,23.69
2023-08-05T21:43:56.407Z,23.55
2023-08-05T21:46:42.370Z,23.67
2023-08-05T21:49:28.152Z,23.58
2023-08-05T21:52:14.322Z,23.65
2023-08-05T21:55:00.706Z,23.53
2023-08-05T21:57:46.564Z,23.63
2023-08-05T22:00:33.212Z,23.57
2023-08-05T22:03:19.272Z,23.52
2023-08-05T22:06:06.870Z,23.52
2023-08-05T22:08:53.190Z,23.51
2023-08-05T22:11:40.547Z,23.60
2023-08-05T22:14:26.367Z,23.54
2023-08-05T22:17:12.383Z,23.47
2023-08-05T22:19:58.505Z,23.37
2023-08-05T22:22:44.442Z,23.45
2023-08-05T22:25:30.531Z,23.50
2023-08-05T22:28:16.490Z,23.50
2023-08-05T22:31:02.279Z,23.49
2023-08-05T22:33:48.358Z,23.39
2023-08-05T22:36:34.297Z,23.47
2023-08-05T22:39:20.391Z,23.48
2023-08-05T22:42:07.182Z,23.41
2023-08-05T22:44:54.602Z,23.35
2023-08-05T22:47:40.506Z,23.34
2023-08-05T22:50:26.842Z,23.42
2023-08-05T22:53:12.902Z,23.28
2023-08-05T22:56:02.947Z,23.32
2023-08-05T22:58:55.004Z,23.30
2023-08-05T23:01:41.249Z,23.19
2023-08-05T23:04:27.160Z,23.27
2023-08-05T23:07:13.250Z,23.10
2023-08-05T23:09:59.602Z,23.18
2023-08-05T23:12:45.713Z,23.19
2023-08-05T23:15:34.737Z,23.06
2023-08-05T23:18:20.729Z,23.05
2023-08-05T23:21:07.240Z,22.99
2023-08-05T23:23:53.479Z,23.03
2023-08-05T23:26:39.738Z,22.97
2023-08-05T23:29:25.994Z,23.04
2023-08-05T23:32:12.091Z,23.02
2023-08-05T23:34:57.990Z,23.01
2023-08-05T23:37:43.996Z,23.05
2023-08-05T23:40:30.102Z,22.94
2023-08-05T23:43:16.577Z,23.06
2023-08-05T23:46:02.872Z,23.04
2023-08-05T23:48:49.019Z,22.96
2023-08-05T23:51:34.913Z,22.99
2023-08-05T23:54:20.846Z,22.96
2023-08-05T23:57:07.143Z,22.84
2023-08-05T23:59:53.306Z,22.81
